Time;durP1;ratioP1;P1;durP2;ratioP2;P2;SDS_P1;SDS_P2;PMS_P1;PMS_P2;Temp;Humidity;BMP_temperature;BMP_pressure;BME280_temperature;BME280_humidity;BME280_pressure;Samples;Min_cycle;Max_cycle;Signal;HPM_P1;HPM_P2
2022/09/02 00:28:34;;;;;;;3.05;0.90;;;15.00;99.90;;;;;;5290818;22;20083;-73
2022/09/02 00:31:00;;;;;;;2.42;0.65;;;14.90;99.90;;;;;;5075397;28;20390;-74
2022/09/02 00:33:25;;;;;;;2.17;0.70;;;14.90;99.90;;;;;;5074439;28;20089;-72
2022/09/02 00:35:51;;;;;;;3.42;0.80;;;14.80;99.90;;;;;;5093655;28;20035;-72
2022/09/02 00:38:17;;;;;;;5.45;0.77;;;14.90;99.90;;;;;;5058225;28;20052;-72
2022/09/02 00:40:46;;;;;;;2.28;0.80;;;14.80;99.90;;;;;;5093579;28;20079;-73
2022/09/02 00:43:22;;;;;;;5.13;1.35;;;14.80;99.90;;;;;;5075296;28;20101;-73
2022/09/02 00:45:48;;;;;;;2.67;1.23;;;14.80;99.90;;;;;;5093590;28;20044;-73
2022/09/02 00:48:13;;;;;;;2.40;0.82;;;14.70;99.90;;;;;;5075104;28;20055;-73
2022/09/02 00:50:39;;;;;;;7.93;0.80;;;14.70;99.90;;;;;;5093432;28;20410;-73
2022/09/02 00:53:08;;;;;;;4.43;0.90;;;14.60;99.90;;;;;;5093176;28;20135;-73
2022/09/02 00:55:39;;;;;;;1.58;0.70;;;14.60;99.90;;;;;;5092893;28;20101;-73
2022/09/02 00:58:21;;;;;;;3.75;1.05;;;14.60;99.90;;;;;;5093272;28;20040;-74
2022/09/02 01:00:48;;;;;;;5.38;0.80;;;14.60;99.90;;;;;;5075124;28;20130;-73
2022/09/02 01:03:18;;;;;;;4.00;0.88;;;14.50;99.90;;;;;;5092820;28;20059;-73
2022/09/02 01:05:46;;;;;;;1.95;0.70;;;14.50;99.90;;;;;;5093021;28;20048;-72
2022/09/02 01:08:14;;;;;;;2.28;0.68;;;14.50;99.90;;;;;;5093235;28;20048;-74
2022/09/02 01:10:41;;;;;;;3.10;0.90;;;14.50;99.90;;;;;;5092663;28;20126;-73
2022/09/02 01:13:12;;;;;;;6.90;1.05;;;14.50;99.90;;;;;;5093067;28;20063;-74
2022/09/02 01:15:47;;;;;;;2.38;1.00;;;14.50;99.90;;;;;;5093334;28;20051;-72
2022/09/02 01:18:17;;;;;;;4.47;1.00;;;14.40;99.90;;;;;;5073198;28;20051;-74
2022/09/02 01:20:44;;;;;;;4.75;1.00;;;14.40;99.90;;;;;;5093119;28;20048;-73
2022/09/02 01:23:10;;;;;;;3.45;0.80;;;14.30;99.90;;;;;;5093047;28;20461;-73
2022/09/02 01:25:36;;;;;;;2.35;0.93;;;14.30;99.90;;;;;;5092606;28;20051;-73
2022/09/02 01:28:08;;;;;;;1.52;0.80;;;14.30;99.90;;;;;;5098583;28;20055;-73
2022/09/02 01:30:37;;;;;;;2.40;0.65;;;14.30;99.90;;;;;;5113315;28;20055;-74
2022/09/02 01:33:02;;;;;;;5.13;0.98;;;14.30;99.90;;;;;;5094937;28;20056;-74
2022/09/02 01:35:29;;;;;;;1.83;0.80;;;14.40;99.90;;;;;;5113214;28;20048;-73
2022/09/02 01:37:56;;;;;;;4.43;0.73;;;14.30;99.90;;;;;;5092857;28;20044;-73
2022/09/02 01:40:24;;;;;;;4.00;0.65;;;14.20;99.90;;;;;;5112959;28;20398;-73
2022/09/02 01:42:55;;;;;;;1.13;0.70;;;14.20;99.90;;;;;;5112398;28;20109;-73
2022/09/02 01:45:21;;;;;;;1.73;0.80;;;14.20;99.90;;;;;;5094282;28;20054;-73
2022/09/02 01:47:47;;;;;;;1.63;0.82;;;14.20;99.90;;;;;;5110824;28;20040;-74
2022/09/02 01:50:13;;;;;;;2.97;0.95;;;14.10;99.90;;;;;;5112692;28;20040;-74
2022/09/02 01:52:39;;;;;;;1.33;0.73;;;14.10;99.90;;;;;;5093852;28;20124;-73
2022/09/02 01:55:05;;;;;;;1.88;0.82;;;14.10;99.90;;;;;;5112513;28;20081;-74
2022/09/02 01:57:31;;;;;;;2.80;0.73;;;14.10;99.90;;;;;;5112030;28;20043;-72
2022/09/02 01:59:56;;;;;;;3.13;0.80;;;14.00;99.90;;;;;;5110554;28;20043;-73
2022/09/02 02:02:22;;;;;;;5.30;1.10;;;14.00;99.90;;;;;;5114187;27;20039;-73
2022/09/02 02:04:49;;;;;;;3.85;0.77;;;14.00;99.90;;;;;;5132540;27;20121;-73
2022/09/02 02:07:17;;;;;;;1.67;0.60;;;14.00;99.90;;;;;;5114289;27;20055;-73
2022/09/02 02:09:43;;;;;;;3.28;0.90;;;14.00;99.90;;;;;;5113403;27;20065;-74
2022/09/02 02:12:09;;;;;;;2.13;0.80;;;14.00;99.90;;;;;;5112059;27;20109;-73
2022/09/02 02:14:35;;;;;;;2.58;0.80;;;14.00;99.90;;;;;;5090941;28;20126;-73
2022/09/02 02:17:02;;;;;;;1.60;0.68;;;13.90;99.90;;;;;;5113420;27;20077;-73
2022/09/02 02:19:28;;;;;;;5.00;0.90;;;13.90;99.90;;;;;;5096164;27;20442;-74
2022/09/02 02:21:54;;;;;;;2.28;0.90;;;13.90;99.90;;;;;;5104445;27;20127;-73
2022/09/02 02:24:19;;;;;;;3.15;0.85;;;14.00;99.90;;;;;;5093715;28;20056;-72
2022/09/02 02:26:46;;;;;;;3.72;0.80;;;13.90;99.90;;;;;;5081387;28;20433;-73
2022/09/02 02:29:12;;;;;;;2.20;0.80;;;13.80;99.90;;;;;;5090887;28;20079;-73
2022/09/02 02:31:38;;;;;;;4.57;0.90;;;13.90;99.90;;;;;;5092585;28;20114;-73
2022/09/02 02:34:04;;;;;;;3.90;1.00;;;13.80;99.90;;;;;;5091322;28;20090;-74
2022/09/02 02:36:30;;;;;;;1.83;0.82;;;13.80;99.90;;;;;;5091457;28;20076;-73
2022/09/02 02:38:56;;;;;;;3.40;0.85;;;13.90;99.90;;;;;;5104427;28;20043;-73
2022/09/02 02:41:22;;;;;;;2.22;1.08;;;13.80;99.90;;;;;;5132410;27;20043;-73
2022/09/02 02:43:47;;;;;;;2.90;0.73;;;13.80;99.90;;;;;;5125326;27;20054;-73
2022/09/02 02:46:14;;;;;;;2.05;0.80;;;13.80;99.90;;;;;;5093030;28;20118;-73
2022/09/02 02:48:40;;;;;;;4.57;0.80;;;13.70;99.90;;;;;;5111390;28;20043;-73
2022/09/02 02:51:07;;;;;;;6.57;0.95;;;13.70;99.90;;;;;;5111589;28;20405;-73
2022/09/02 02:53:35;;;;;;;1.80;0.70;;;13.70;99.90;;;;;;5111274;28;20055;-72
2022/09/02 02:56:02;;;;;;;3.25;0.80;;;13.90;99.90;;;;;;5095122;27;20508;-74
2022/09/02 02:58:28;;;;;;;4.78;0.93;;;13.70;99.90;;;;;;5131849;27;20046;-74
2022/09/02 03:00:55;;;;;;;4.63;1.00;;;13.70;99.90;;;;;;5119265;27;20551;-73
2022/09/02 03:03:21;;;;;;;5.28;1.08;;;13.60;99.90;;;;;;5098450;27;20107;-73
2022/09/02 03:05:48;;;;;;;3.72;1.02;;;13.60;99.90;;;;;;5131791;27;20435;-72
2022/09/02 03:08:14;;;;;;;3.72;0.70;;;13.60;99.90;;;;;;5113065;27;20126;-74
2022/09/02 03:10:43;;;;;;;2.92;0.80;;;13.60;99.90;;;;;;5109663;27;20063;-74
2022/09/02 03:13:10;;;;;;;5.10;1.10;;;13.60;99.90;;;;;;5131713;27;20499;-72
2022/09/02 03:15:37;;;;;;;4.45;1.83;;;13.60;99.90;;;;;;5122484;27;20051;-73
2022/09/02 03:18:03;;;;;;;2.65;1.00;;;13.50;99.90;;;;;;5110926;28;20385;-73
2022/09/02 03:20:30;;;;;;;2.78;1.00;;;13.50;99.90;;;;;;5111275;28;20035;-74
2022/09/02 03:22:57;;;;;;;5.32;1.00;;;13.50;99.90;;;;;;5089666;28;20035;-73
2022/09/02 03:25:26;;;;;;;3.17;0.90;;;13.50;99.90;;;;;;5104527;28;20458;-73
2022/09/02 03:27:52;;;;;;;5.75;1.20;;;13.40;99.90;;;;;;5092233;28;20079;-73
2022/09/02 03:30:25;;;;;;;5.97;1.05;;;13.50;99.90;;;;;;5110717;28;20058;-73
2022/09/02 03:32:52;;;;;;;3.25;0.88;;;13.40;99.90;;;;;;5092040;28;20043;-73
2022/09/02 03:35:20;;;;;;;2.30;1.17;;;13.40;99.90;;;;;;5092653;28;20438;-73
2022/09/02 03:37:47;;;;;;;3.28;0.90;;;13.50;99.90;;;;;;5090226;28;20491;-73
2022/09/02 03:40:16;;;;;;;5.97;1.10;;;13.40;99.90;;;;;;5084851;28;20044;-73
2022/09/02 03:42:42;;;;;;;2.88;1.10;;;13.40;99.90;;;;;;5110248;28;20048;-73
2022/09/02 03:45:09;;;;;;;1.92;1.08;;;13.40;99.90;;;;;;5098652;28;20043;-73
2022/09/02 03:47:35;;;;;;;4.78;1.10;;;13.40;99.90;;;;;;5089861;28;20076;-73
2022/09/02 03:50:02;;;;;;;4.70;0.93;;;13.40;99.90;;;;;;5104270;28;20059;-74
2022/09/02 03:52:28;;;;;;;6.18;1.00;;;13.40;99.90;;;;;;5091398;28;20126;-73
2022/09/02 03:54:55;;;;;;;2.20;0.93;;;13.30;99.90;;;;;;5108907;28;20058;-73
2022/09/02 03:57:24;;;;;;;4.82;1.08;;;13.30;99.90;;;;;;5110362;28;20383;-74
2022/09/02 03:59:50;;;;;;;3.10;1.17;;;13.20;99.90;;;;;;5110658;28;20052;-74
2022/09/02 04:02:17;;;;;;;5.00;1.10;;;13.20;99.90;;;;;;5095240;28;20044;-74
2022/09/02 04:04:42;;;;;;;5.10;1.00;;;13.20;99.90;;;;;;5071808;28;20052;-73
2022/09/02 04:07:08;;;;;;;1.83;0.85;;;13.20;99.90;;;;;;5091326;28;20040;-73
2022/09/02 04:09:34;;;;;;;3.70;1.10;;;13.20;99.90;;;;;;5073020;28;20091;-73
2022/09/02 04:11:59;;;;;;;4.55;1.33;;;13.10;99.90;;;;;;5071601;28;20079;-71
2022/09/02 04:14:26;;;;;;;3.65;0.90;;;13.10;99.90;;;;;;5090027;28;20127;-73
2022/09/02 04:16:51;;;;;;;3.83;1.00;;;13.10;99.90;;;;;;5090947;28;20486;-72
2022/09/02 04:19:17;;;;;;;5.07;1.30;;;13.00;99.90;;;;;;5089620;28;20129;-74
2022/09/02 04:21:43;;;;;;;2.63;1.10;;;13.10;99.90;;;;;;5090065;28;20487;-73
2022/09/02 04:24:10;;;;;;;3.25;1.00;;;13.00;99.90;;;;;;5090061;28;20093;-73
2022/09/02 04:26:36;;;;;;;3.67;1.17;;;13.00;99.90;;;;;;5112840;28;20390;-73
2022/09/02 04:29:03;;;;;;;2.08;1.00;;;13.00;99.90;;;;;;5091835;28;20379;-73
2022/09/02 04:31:30;;;;;;;4.82;1.17;;;13.00;99.90;;;;;;5092123;28;20443;-73
2022/09/02 04:33:56;;;;;;;3.17;1.20;;;13.00;99.90;;;;;;5091747;28;20051;-73
2022/09/02 04:36:23;;;;;;;3.50;1.20;;;13.00;99.90;;;;;;5091355;28;20048;-73
2022/09/02 04:38:49;;;;;;;3.88;1.20;;;13.00;99.90;;;;;;5081054;28;20050;-73
2022/09/02 04:41:23;;;;;;;1.95;0.90;;;13.00;99.90;;;;;;5132997;27;20042;-73
2022/09/02 04:43:50;;;;;;;2.90;1.17;;;12.90;99.90;;;;;;5100933;28;20040;-73
2022/09/02 04:46:16;;;;;;;3.05;1.10;;;12.90;99.90;;;;;;5093090;28;20660;-73
2022/09/02 04:48:43;;;;;;;4.28;1.52;;;13.00;99.90;;;;;;5094523;28;20072;-73
2022/09/02 04:51:12;;;;;;;4.53;1.00;;;12.80;99.90;;;;;;5093064;28;20048;-73
2022/09/02 04:53:39;;;;;;;5.03;1.05;;;12.80;99.90;;;;;;5074612;28;20056;-73
2022/09/02 04:56:07;;;;;;;5.43;1.20;;;12.80;99.90;;;;;;5093204;28;20044;-73
2022/09/02 04:58:34;;;;;;;3.00;0.93;;;12.80;99.90;;;;;;5094122;28;20044;-73
2022/09/02 05:01:08;;;;;;;6.03;1.20;;;12.80;99.90;;;;;;5093170;28;20116;-72
2022/09/02 05:03:35;;;;;;;3.15;0.95;;;12.80;99.90;;;;;;5104184;28;20057;-73
2022/09/02 05:06:06;;;;;;;3.78;1.40;;;12.70;99.90;;;;;;5094597;28;20193;-72
2022/09/02 05:08:35;;;;;;;2.72;1.30;;;12.70;99.90;;;;;;5083523;28;20086;-73
2022/09/02 05:11:04;;;;;;;2.83;1.35;;;12.70;99.90;;;;;;5119169;27;20045;-73
2022/09/02 05:13:30;;;;;;;4.45;1.20;;;12.70;99.90;;;;;;5133664;27;20051;-73
2022/09/02 05:15:56;;;;;;;3.88;1.50;;;12.70;99.90;;;;;;5085310;27;20126;-73
2022/09/02 05:18:21;;;;;;;5.43;1.15;;;12.70;99.90;;;;;;5133716;27;20051;-73
2022/09/02 05:20:47;;;;;;;3.00;1.48;;;12.70;99.90;;;;;;5102580;27;20043;-73
2022/09/02 05:23:13;;;;;;;4.95;1.38;;;12.70;99.90;;;;;;5092577;28;20624;-73
2022/09/02 05:25:39;;;;;;;2.83;1.17;;;12.70;99.90;;;;;;5093045;28;20052;-74
2022/09/02 05:28:10;;;;;;;3.15;1.05;;;12.70;99.90;;;;;;5092242;28;20051;-74
2022/09/02 05:30:37;;;;;;;3.95;1.20;;;12.70;99.90;;;;;;5093810;28;20048;-74
2022/09/02 05:33:04;;;;;;;2.88;1.42;;;12.80;99.90;;;;;;5092323;28;20094;-73
2022/09/02 05:35:30;;;;;;;2.20;1.17;;;12.70;99.90;;;;;;5074126;28;20044;-73
2022/09/02 05:37:56;;;;;;;9.45;1.52;;;12.90;99.90;;;;;;5074023;28;20040;-73
2022/09/02 05:40:22;;;;;;;4.07;1.30;;;12.90;99.90;;;;;;5074923;28;20039;-74
2022/09/02 05:42:47;;;;;;;7.68;1.35;;;12.80;99.90;;;;;;5092145;28;20096;-73
2022/09/02 05:45:13;;;;;;;6.63;1.63;;;12.80;99.90;;;;;;5092477;28;20182;-73
2022/09/02 05:47:39;;;;;;;5.60;1.60;;;12.80;99.90;;;;;;5092322;28;20076;-74
2022/09/02 05:50:05;;;;;;;3.38;1.20;;;12.90;99.90;;;;;;5091021;28;20044;-74
2022/09/02 05:52:31;;;;;;;5.22;1.75;;;12.90;99.90;;;;;;5102488;27;20146;-72
2022/09/02 05:54:57;;;;;;;8.98;1.40;;;13.00;99.90;;;;;;5132647;27;20138;-73
2022/09/02 05:57:24;;;;;;;6.10;1.40;;;13.00;99.90;;;;;;5132963;27;20489;-74
2022/09/02 05:59:54;;;;;;;2.45;1.25;;;13.10;99.90;;;;;;5132768;27;20095;-73
2022/09/02 06:02:22;;;;;;;5.20;1.40;;;13.10;99.90;;;;;;5109561;27;20131;-73
2022/09/02 06:04:50;;;;;;;4.75;1.33;;;13.10;99.90;;;;;;5093875;28;20051;-74
2022/09/02 06:07:18;;;;;;;3.80;1.48;;;13.20;99.90;;;;;;5112306;28;20047;-73
2022/09/02 06:09:44;;;;;;;2.33;1.30;;;13.20;99.90;;;;;;5111364;28;20065;-74
2022/09/02 06:12:12;;;;;;;3.67;1.40;;;13.30;99.90;;;;;;5098431;27;20482;-74
2022/09/02 06:14:37;;;;;;;2.65;1.00;;;13.30;99.90;;;;;;5091887;28;20101;-73
2022/09/02 06:17:04;;;;;;;6.00;1.48;;;13.80;99.90;;;;;;5073561;28;20052;-72
2022/09/02 06:19:31;;;;;;;5.15;1.40;;;13.40;99.90;;;;;;5091834;28;20051;-74
2022/09/02 06:21:58;;;;;;;5.15;1.60;;;13.50;99.90;;;;;;5102510;27;20497;-73
2022/09/02 06:24:25;;;;;;;2.65;1.45;;;13.50;99.90;;;;;;5107867;27;20074;-74
2022/09/02 06:26:52;;;;;;;5.78;1.25;;;13.70;99.90;;;;;;5111692;28;20047;-72
2022/09/02 06:29:18;;;;;;;5.93;1.23;;;13.70;99.90;;;;;;5128039;27;20051;-73
2022/09/02 06:31:47;;;;;;;6.93;1.55;;;14.00;99.90;;;;;;5132481;27;20035;-73
2022/09/02 06:34:15;;;;;;;4.22;1.40;;;13.80;99.90;;;;;;5113031;27;20044;-73
2022/09/02 06:36:42;;;;;;;6.20;1.52;;;13.90;99.90;;;;;;5088826;28;20177;-74
2022/09/02 06:39:11;;;;;;;10.60;1.70;;;14.00;99.90;;;;;;5098865;28;20101;-73
2022/09/02 06:41:38;;;;;;;2.15;1.20;;;14.00;99.90;;;;;;5104485;28;20054;-73
2022/09/02 06:44:07;;;;;;;7.70;1.70;;;14.10;99.90;;;;;;5082229;28;20047;-73
2022/09/02 06:46:37;;;;;;;4.45;1.85;;;14.40;99.90;;;;;;5093239;28;20043;-73
2022/09/02 06:49:04;;;;;;;3.47;1.30;;;14.50;99.90;;;;;;5111161;28;20051;-72
2022/09/02 06:51:34;;;;;;;2.45;1.52;;;14.30;99.90;;;;;;5075688;28;20050;-72
2022/09/02 06:54:01;;;;;;;2.45;1.30;;;14.40;99.90;;;;;;5109546;28;20039;-74
2022/09/02 06:56:27;;;;;;;3.33;1.55;;;14.50;99.90;;;;;;5075968;28;20055;-73
2022/09/02 06:58:53;;;;;;;4.80;1.52;;;14.50;99.90;;;;;;5111563;28;20051;-73
2022/09/02 07:01:25;;;;;;;4.55;1.40;;;14.60;99.90;;;;;;5110998;28;20040;-74
2022/09/02 07:06:37;;;;;;;2.38;1.38;;;14.80;99.90;;;;;;5087043;28;20490;-74
2022/09/02 07:09:05;;;;;;;2.92;1.33;;;14.90;99.90;;;;;;5110988;28;20052;-73
2022/09/02 07:11:31;;;;;;;3.55;1.50;;;15.00;99.90;;;;;;5092584;28;20058;-73
2022/09/02 07:14:00;;;;;;;6.97;1.38;;;15.00;99.90;;;;;;5109934;28;20071;-73
2022/09/02 07:16:32;;;;;;;5.47;1.42;;;15.20;99.90;;;;;;5104430;28;20035;-74
2022/09/02 07:19:00;;;;;;;6.13;1.50;;;15.20;99.90;;;;;;5110842;28;20759;-73
2022/09/02 07:21:26;;;;;;;4.13;1.38;;;15.30;99.90;;;;;;5092998;28;20054;-73
2022/09/02 07:23:52;;;;;;;2.83;1.40;;;15.60;99.90;;;;;;5109847;28;20043;-72
2022/09/02 07:26:17;;;;;;;3.25;1.40;;;15.50;99.90;;;;;;5086758;28;20058;-72
2022/09/02 07:28:43;;;;;;;4.20;1.20;;;15.60;99.90;;;;;;5109954;28;20078;-72
2022/09/02 07:31:10;;;;;;;6.05;1.70;;;15.80;99.90;;;;;;5110318;28;20043;-73
2022/09/02 07:33:36;;;;;;;2.53;1.35;;;15.90;99.90;;;;;;5089360;28;20053;-73
2022/09/02 07:36:09;;;;;;;3.55;1.15;;;15.90;99.90;;;;;;5102093;28;20032;-73
2022/09/02 07:38:35;;;;;;;4.47;1.33;;;16.10;99.90;;;;;;5093967;28;20048;-72
2022/09/02 07:41:01;;;;;;;4.50;1.50;;;16.20;99.90;;;;;;5109854;28;20062;-74
2022/09/02 07:43:28;;;;;;;5.53;1.33;;;16.30;99.90;;;;;;5089149;28;20100;-73
2022/09/02 07:45:55;;;;;;;2.03;1.13;;;16.50;99.90;;;;;;5110215;28;20056;-73
2022/09/02 07:48:24;;;;;;;3.72;1.45;;;16.50;99.90;;;;;;5110668;28;20079;-72
2022/09/02 07:50:50;;;;;;;6.35;1.80;;;16.70;99.90;;;;;;5097050;28;20097;-73
2022/09/02 07:53:17;;;;;;;4.05;1.40;;;16.80;99.90;;;;;;5089588;28;20056;-73
2022/09/02 07:55:43;;;;;;;2.28;1.20;;;17.00;99.90;;;;;;5108103;28;20046;-73
2022/09/02 07:58:10;;;;;;;4.97;1.30;;;17.10;99.90;;;;;;5097506;28;20044;-72
2022/09/02 08:00:36;;;;;;;4.65;1.38;;;17.30;99.90;;;;;;5093152;28;20040;-73
2022/09/02 08:03:03;;;;;;;4.90;1.77;;;17.50;99.90;;;;;;5108378;28;20036;-73
2022/09/02 08:05:30;;;;;;;6.43;1.80;;;17.60;99.90;;;;;;5088818;28;20052;-73
2022/09/02 08:07:56;;;;;;;3.95;1.70;;;17.80;99.90;;;;;;5104949;28;20062;-75
2022/09/02 08:10:26;;;;;;;3.97;2.28;;;18.00;99.90;;;;;;5089373;28;20047;-73
2022/09/02 08:12:51;;;;;;;4.43;1.83;;;18.10;99.90;;;;;;5073552;28;20052;-73
2022/09/02 08:15:19;;;;;;;6.28;2.28;;;18.30;99.90;;;;;;5113971;28;20100;-74
2022/09/02 08:17:46;;;;;;;6.07;1.48;;;18.70;99.90;;;;;;5097173;28;20042;-74
2022/09/02 08:20:13;;;;;;;4.88;1.60;;;18.90;99.90;;;;;;5094653;28;20040;-73
2022/09/02 08:22:40;;;;;;;4.50;1.77;;;19.20;99.90;;;;;;5112921;28;20070;-74
2022/09/02 08:25:06;;;;;;;6.40;1.60;;;19.40;99.90;;;;;;5113968;28;20092;-74
2022/09/02 08:27:33;;;;;;;6.22;1.73;;;19.60;99.90;;;;;;5113506;28;20096;-76
2022/09/02 08:30:00;;;;;;;6.82;1.38;;;19.90;99.90;;;;;;5113265;28;20566;-74
2022/09/02 08:32:26;;;;;;;3.55;1.48;;;20.10;99.90;;;;;;5113750;28;20036;-75
2022/09/02 08:34:52;;;;;;;5.97;1.50;;;20.40;99.90;;;;;;5113528;28;20043;-73
2022/09/02 08:37:18;;;;;;;2.67;1.10;;;20.60;99.90;;;;;;5095380;28;20050;-75
2022/09/02 08:39:44;;;;;;;6.45;1.23;;;20.80;99.90;;;;;;5113748;28;20086;-74
2022/09/02 08:42:31;;;;;;;3.03;1.45;;;20.90;99.90;;;;;;5113243;28;20044;-73
2022/09/02 08:45:05;;;;;;;8.32;1.45;;;21.00;98.70;;;;;;5113927;28;20044;-76
2022/09/02 08:47:34;;;;;;;6.47;1.08;;;21.30;99.60;;;;;;5113162;28;20134;-74
2022/09/02 08:50:07;;;;;;;4.13;1.10;;;21.40;98.30;;;;;;5112685;28;20051;-75
2022/09/02 08:52:42;;;;;;;2.42;0.82;;;21.50;98.20;;;;;;5094980;28;20058;-74
2022/09/02 08:55:20;;;;;;;4.47;1.10;;;21.70;99.10;;;;;;5095486;28;20498;-76
2022/09/02 08:57:46;;;;;;;3.17;0.80;;;21.90;98.00;;;;;;5095150;28;20044;-75
2022/09/02 09:00:13;;;;;;;6.40;1.00;;;22.20;97.70;;;;;;5112927;28;20425;-74
2022/09/02 09:03:01;;;;;;;4.97;2.00;;;22.40;97.70;;;;;;5112633;28;20097;-73
2022/09/02 09:05:48;;;;;;;2.45;0.75;;;22.50;97.50;;;;;;5112710;28;20534;-76
2022/09/02 09:08:26;;;;;;;5.25;1.08;;;22.60;96.00;;;;;;5094803;28;20480;-75
2022/09/02 09:11:29;;;;;;;2.28;0.80;;;22.80;96.10;;;;;;5093999;28;20052;-75
2022/09/02 09:14:21;;;;;;;7.43;1.10;;;23.00;95.50;;;;;;5112894;28;20040;-74
2022/09/02 09:17:08;;;;;;;3.72;0.70;;;23.20;96.10;;;;;;5032993;28;20404;-73
2022/09/02 09:19:47;;;;;;;5.50;0.98;;;23.20;95.90;;;;;;5049421;28;20096;-74
2022/09/02 09:22:17;;;;;;;2.63;0.85;;;23.20;94.90;;;;;;5047314;28;20056;-75
2022/09/02 09:24:45;;;;;;;1.05;0.68;;;23.30;95.10;;;;;;5052468;28;20060;-74
2022/09/02 09:27:13;;;;;;;5.78;0.93;;;23.40;94.90;;;;;;5069711;28;20060;-74
2022/09/02 09:29:39;;;;;;;7.95;0.90;;;23.50;94.60;;;;;;5049384;28;20057;-73
2022/09/02 09:32:34;;;;;;;2.00;0.70;;;23.60;94.60;;;;;;5049521;28;20053;-74
2022/09/02 09:35:06;;;;;;;2.95;0.70;;;23.80;93.70;;;;;;5033005;28;20071;-73
2022/09/02 09:37:38;;;;;;;8.95;0.95;;;24.00;94.00;;;;;;5049894;28;20388;-75
2022/09/02 09:40:29;;;;;;;5.28;0.80;;;24.10;93.20;;;;;;5049209;28;20045;-75
2022/09/02 09:43:11;;;;;;;2.15;0.60;;;24.10;92.70;;;;;;5049715;28;20052;-74
2022/09/02 09:45:44;;;;;;;9.10;0.70;;;24.20;92.70;;;;;;5025130;28;20037;-75
2022/09/02 09:48:16;;;;;;;2.23;0.60;;;24.30;91.90;;;;;;5019171;28;20049;-75
2022/09/02 09:50:46;;;;;;;2.90;0.80;;;24.40;91.30;;;;;;5014878;28;20111;-74
2022/09/02 09:53:22;;;;;;;9.23;0.80;;;24.50;92.10;;;;;;5025500;28;20063;-74
2022/09/02 09:55:54;;;;;;;1.20;0.60;;;24.70;92.10;;;;;;5053260;28;20051;-75
2022/09/02 09:58:32;;;;;;;4.47;0.85;;;24.60;89.70;;;;;;5059559;28;20052;-75
2022/09/02 10:00:59;;;;;;;5.75;0.80;;;24.70;90.30;;;;;;5108005;28;20042;-77
2022/09/02 10:03:29;;;;;;;2.10;0.63;;;24.80;91.50;;;;;;5099957;28;20107;-72
2022/09/02 10:05:57;;;;;;;4.10;0.75;;;25.00;91.20;;;;;;5111925;28;20044;-72
2022/09/02 10:08:26;;;;;;;5.97;1.50;;;25.20;90.00;;;;;;5090071;28;20133;-72
2022/09/02 10:11:01;;;;;;;3.10;0.55;;;25.30;90.60;;;;;;5090921;28;20046;-73
2022/09/02 10:13:32;;;;;;;4.43;1.10;;;25.10;86.80;;;;;;5048144;28;20088;-73
2022/09/02 10:16:03;;;;;;;4.97;0.75;;;25.10;88.50;;;;;;5090659;28;20056;-73
2022/09/02 10:18:37;;;;;;;8.95;0.95;;;25.20;89.40;;;;;;5090943;28;20437;-73
2022/09/02 10:21:11;;;;;;;;;;;25.40;87.90;;;;;;5091277;28;20153;-71
2022/09/02 10:23:56;;;;;;;4.75;0.65;;;25.50;89.20;;;;;;5075670;28;19924;-74
2022/09/02 10:26:50;;;;;;;6.43;0.88;;;25.50;88.00;;;;;;5035675;28;20071;-71
2022/09/02 10:29:47;;;;;;;2.80;0.70;;;25.60;85.40;;;;;;5078576;28;20094;-72
2022/09/02 10:32:38;;;;;;;3.28;0.95;;;25.90;88.40;;;;;;5110881;28;20044;-71
2022/09/02 10:35:31;;;;;;;3.75;0.93;;;26.00;88.50;;;;;;5082069;28;20063;-72
2022/09/02 10:38:28;;;;;;;8.10;0.95;;;26.00;86.80;;;;;;5093467;28;20487;-72
2022/09/02 10:41:11;;;;;;;3.15;0.70;;;26.00;82.80;;;;;;5070761;28;20037;-72
2022/09/02 10:44:05;;;;;;;2.60;0.60;;;26.10;85.80;;;;;;5070737;28;20102;-73
2022/09/02 10:46:55;;;;;;;6.28;0.80;;;26.20;85.80;;;;;;5068379;28;20544;-72
2022/09/02 10:49:40;;;;;;;3.80;0.70;;;26.20;84.20;;;;;;5070894;28;20486;-72
2022/09/02 10:52:14;;;;;;;7.10;1.00;;;26.10;83.50;;;;;;5079133;28;20036;-71
2022/09/02 10:54:46;;;;;;;2.83;0.90;;;26.20;83.40;;;;;;5090048;28;20166;-72
2022/09/02 10:57:18;;;;;;;9.40;0.70;;;26.20;83.30;;;;;;5091030;28;20097;-72
2022/09/02 10:59:56;;;;;;;4.47;0.60;;;26.20;83.30;;;;;;5090434;28;20050;-73
2022/09/02 11:02:30;;;;;;;6.22;0.98;;;26.30;81.50;;;;;;5070528;28;20091;-72
2022/09/02 11:05:04;;;;;;;3.08;0.77;;;26.20;80.30;;;;;;5069521;28;20495;-74
2022/09/02 11:07:41;;;;;;;3.72;0.70;;;26.30;80.70;;;;;;5069070;28;20048;-72
2022/09/02 11:10:24;;;;;;;2.75;0.77;;;26.40;80.40;;;;;;5071631;28;20048;-74
2022/09/02 11:13:04;;;;;;;3.70;0.82;;;26.40;80.40;;;;;;5070151;28;20041;-73
2022/09/02 11:15:44;;;;;;;4.38;0.70;;;26.50;80.60;;;;;;5069064;28;20101;-76
2022/09/02 11:18:21;;;;;;;3.38;0.75;;;26.60;81.80;;;;;;5071455;28;20448;-76
2022/09/02 11:21:07;;;;;;;2.05;0.68;;;26.60;80.20;;;;;;5070662;28;20044;-72
2022/09/02 11:23:58;;;;;;;4.05;0.82;;;26.70;78.80;;;;;;5070179;28;20569;-74
2022/09/02 11:26:40;;;;;;;4.85;0.70;;;26.80;79.50;;;;;;5076312;28;20548;-74
2022/09/02 11:29:16;;;;;;;13.35;1.13;;;26.90;79.50;;;;;;5119634;27;20577;-76
2022/09/02 11:32:04;;;;;;;2.83;0.70;;;26.80;79.10;;;;;;5125822;27;20251;-77
2022/09/02 11:34:35;;;;;;;6.80;0.80;;;27.00;80.40;;;;;;5091651;28;20063;-81
2022/09/02 11:37:04;;;;;;;6.95;0.70;;;27.00;79.80;;;;;;5081504;28;20414;-74
2022/09/02 11:39:42;;;;;;;3.03;0.60;;;26.90;79.10;;;;;;5089857;28;20398;-76
2022/09/02 11:42:21;;;;;;;3.38;1.00;;;26.90;78.20;;;;;;5090680;28;20083;-75
2022/09/02 11:45:22;;;;;;;3.47;0.57;;;26.90;77.60;;;;;;5090485;28;20055;-76
2022/09/02 11:47:54;;;;;;;2.00;0.52;;;26.80;78.00;;;;;;5026588;28;20077;-76
2022/09/02 11:50:25;;;;;;;6.68;0.75;;;27.00;78.60;;;;;;5034954;28;20053;-75
2022/09/02 11:53:15;;;;;;;2.55;0.70;;;27.10;76.50;;;;;;5051518;28;20096;-73
2022/09/02 11:56:06;;;;;;;3.20;0.60;;;27.00;76.00;;;;;;5057911;28;20052;-74
2022/09/02 11:58:37;;;;;;;9.43;0.60;;;27.10;75.90;;;;;;5071837;28;20499;-74
2022/09/02 12:01:04;;;;;;;4.20;0.60;;;27.00;76.30;;;;;;5037125;28;20041;-75
2022/09/02 12:03:32;;;;;;;3.47;0.80;;;27.30;76.90;;;;;;5033936;28;20055;-74
2022/09/02 12:06:05;;;;;;;1.50;0.50;;;27.20;77.00;;;;;;5033981;28;20060;-75
2022/09/02 12:08:34;;;;;;;4.35;0.63;;;27.30;76.40;;;;;;5050534;28;20048;-74
2022/09/02 12:11:05;;;;;;;6.85;0.82;;;27.40;76.30;;;;;;5050247;28;20052;-74
2022/09/02 12:13:43;;;;;;;5.18;0.75;;;27.50;75.90;;;;;;5032318;28;20053;-73
2022/09/02 12:16:12;;;;;;;3.03;0.50;;;27.60;74.60;;;;;;5031189;28;20045;-73
2022/09/02 12:18:41;;;;;;;2.55;0.70;;;27.60;75.10;;;;;;5030881;28;20057;-75
2022/09/02 12:21:10;;;;;;;2.58;0.65;;;27.70;75.40;;;;;;5014473;28;20056;-74
2022/09/02 12:23:47;;;;;;;8.10;0.70;;;27.70;74.80;;;;;;5036703;28;20045;-73
2022/09/02 12:26:14;;;;;;;4.88;0.70;;;27.70;74.10;;;;;;5075128;28;20394;-72
2022/09/02 12:28:43;;;;;;;4.28;0.85;;;27.80;74.20;;;;;;5093424;28;20067;-74
2022/09/02 12:31:11;;;;;;;4.63;0.75;;;27.80;73.20;;;;;;5093270;28;20672;-74
2022/09/02 12:33:40;;;;;;;3.20;0.80;;;27.80;73.90;;;;;;5094003;28;20047;-73
2022/09/02 12:36:07;;;;;;;2.38;0.50;;;27.90;73.30;;;;;;5057600;28;20060;-78
2022/09/02 12:38:36;;;;;;;2.13;0.60;;;27.80;73.50;;;;;;5092896;28;20134;-75
2022/09/02 12:41:04;;;;;;;4.88;1.35;;;28.00;71.90;;;;;;5092684;28;20043;-77
2022/09/02 12:43:51;;;;;;;8.68;0.73;;;28.20;73.10;;;;;;5103102;27;20066;-75
2022/09/02 12:46:33;;;;;;;6.25;0.60;;;28.30;72.80;;;;;;5127559;27;20128;-73
2022/09/02 12:49:27;;;;;;;5.47;0.73;;;28.30;71.40;;;;;;5131882;27;20083;-74
2022/09/02 12:52:01;;;;;;;2.95;0.60;;;28.30;71.60;;;;;;5113620;28;20043;-74
2022/09/02 12:54:35;;;;;;;;;;;28.10;71.50;;;;;;5113685;28;20049;-74
2022/09/02 12:57:02;;;;;;;5.20;0.55;;;28.30;72.10;;;;;;5094283;28;20038;-75
2022/09/02 12:59:31;;;;;;;4.50;0.50;;;28.40;72.40;;;;;;5094427;28;20051;-74
2022/09/02 13:02:08;;;;;;;2.20;0.60;;;28.50;70.90;;;;;;5104690;28;20128;-76
2022/09/02 13:05:10;;;;;;;3.70;0.60;;;28.40;69.80;;;;;;5074440;28;20097;-75
2022/09/02 13:07:54;;;;;;;4.25;0.70;;;28.50;68.70;;;;;;5029803;28;20064;-76
2022/09/02 13:10:58;;;;;;;14.23;0.88;;;28.50;69.30;;;;;;5029790;28;20504;-75
2022/09/02 13:13:29;;;;;;;4.47;0.67;;;28.70;70.80;;;;;;4989544;28;20108;-75
2022/09/02 13:16:03;;;;;;;2.88;0.60;;;28.80;70.20;;;;;;4990227;28;20048;-76
2022/09/02 13:18:41;;;;;;;;;;;28.80;69.80;;;;;;4990667;28;20058;-76
2022/09/02 13:21:48;;;;;;;5.22;0.70;;;29.00;70.50;;;;;;4990702;28;19929;-72
2022/09/02 13:24:39;;;;;;;2.17;0.60;;;28.90;69.80;;;;;;4989996;28;20065;-73
2022/09/02 13:27:32;;;;;;;3.47;0.47;;;28.90;68.60;;;;;;4990089;28;20047;-73
2022/09/02 13:30:24;;;;;;;2.42;0.65;;;28.90;68.70;;;;;;4990118;28;20524;-74
2022/09/02 13:33:05;;;;;;;3.83;0.70;;;28.90;68.20;;;;;;4974206;28;20057;-75
2022/09/02 13:35:36;;;;;;;1.88;0.70;;;28.80;68.00;;;;;;4974605;28;20146;-72
2022/09/02 13:38:01;;;;;;;2.92;0.80;;;28.90;68.30;;;;;;4989954;28;20050;-73